createdAt,value
2022-08-27T00:01:35.042Z,101100.47
2022-08-27T00:04:02.782Z,101109.75
2022-08-27T00:06:29.313Z,101107.41
2022-08-27T00:08:55.809Z,101109.16
2022-08-27T00:11:25.495Z,101102.75
2022-08-27T00:13:52.267Z,101109.47
2022-08-27T00:16:18.979Z,101121.22
2022-08-27T00:18:48.073Z,101108.47
2022-08-27T00:21:15.350Z,101105.06
2022-08-27T00:23:41.918Z,101111.06
2022-08-27T00:26:09.418Z,101108.50
2022-08-27T00:28:36.697Z,101103.31
2022-08-27T00:31:03.231Z,101103.97
2022-08-27T00:33:30.627Z,101107.97
2022-08-27T00:35:57.330Z,101109.94
2022-08-27T00:38:24.314Z,101110.38
2022-08-27T00:40:51.405Z,101110.91
2022-08-27T00:43:29.152Z,101110.75
2022-08-27T00:46:02.093Z,101120.00
2022-08-27T00:48:41.969Z,101111.97
2022-08-27T00:51:08.481Z,101111.31
2022-08-27T00:53:36.101Z,101120.88
2022-08-27T00:56:07.939Z,101112.81
2022-08-27T00:58:46.611Z,101122.03
2022-08-27T01:01:16.818Z,101111.28
2022-08-27T01:03:47.165Z,101118.13
2022-08-27T01:06:16.068Z,101110.66
2022-08-27T01:08:48.797Z,101111.06
2022-08-27T01:11:15.334Z,101119.41
2022-08-27T01:14:00.508Z,101125.91
2022-08-27T01:16:36.058Z,101123.41
2022-08-27T01:19:05.968Z,101129.69
2022-08-27T01:21:46.873Z,101134.72
2022-08-27T01:24:31.505Z,101114.63
2022-08-27T01:26:59.511Z,101122.69
2022-08-27T01:29:26.359Z,101125.38
2022-08-27T01:31:53.038Z,101115.31
2022-08-27T01:34:19.647Z,101121.19
2022-08-27T01:36:46.146Z,101118.16
2022-08-27T01:39:12.899Z,101114.91
2022-08-27T01:41:39.527Z,101113.59
2022-08-27T01:44:06.241Z,101111.50
2022-08-27T01:46:32.997Z,101115.34
2022-08-27T01:48:59.538Z,101121.72
2022-08-27T01:51:26.016Z,101120.56
2022-08-27T01:53:52.533Z,101112.88
2022-08-27T01:56:19.220Z,101111.59
2022-08-27T01:58:45.799Z,101120.69
2022-08-27T02:01:14.280Z,101117.59
2022-08-27T02:03:41.709Z,101121.16
2022-08-27T02:06:10.938Z,101121.72
2022-08-27T02:08:37.932Z,101125.63
2022-08-27T02:11:05.176Z,101122.03
2022-08-27T02:13:31.795Z,101116.31
2022-08-27T02:15:58.305Z,101117.41
2022-08-27T02:18:24.881Z,101124.59
2022-08-27T02:20:51.593Z,101120.34
2022-08-27T02:23:18.548Z,101111.44
2022-08-27T02:25:47.241Z,101122.28
2022-08-27T02:28:13.942Z,101112.53
2022-08-27T02:30:40.914Z,101119.22
2022-08-27T02:33:07.459Z,101115.13
2022-08-27T02:35:38.811Z,101110.22
2022-08-27T02:38:05.860Z,101107.22
2022-08-27T02:40:32.759Z,101107.56
2022-08-27T02:42:59.533Z,101104.28
2022-08-27T02:45:26.510Z,101111.66
2022-08-27T02:47:54.014Z,101111.81
2022-08-27T02:50:20.682Z,101111.31
2022-08-27T02:52:53.472Z,101116.50
2022-08-27T02:55:20.804Z,101113.50
2022-08-27T02:57:47.389Z,101111.03
2022-08-27T03:00:17.872Z,101114.75
2022-08-27T03:02:44.913Z,101118.06
2022-08-27T03:05:12.823Z,101107.94
2022-08-27T03:07:40.327Z,101114.84
2022-08-27T03:10:07.967Z,101105.72
2022-08-27T03:12:36.345Z,101110.19
2022-08-27T03:15:08.350Z,101116.91
2022-08-27T03:17:53.531Z,101123.53
2022-08-27T03:20:20.224Z,101119.44
2022-08-27T03:22:46.813Z,101112.63
2022-08-27T03:25:13.842Z,101111.56
2022-08-27T03:27:40.594Z,101115.94
2022-08-27T03:30:11.139Z,101119.56
2022-08-27T03:32:37.900Z,101109.22
2022-08-27T03:35:05.375Z,101111.72
2022-08-27T03:37:31.871Z,101114.81
2022-08-27T03:39:58.412Z,101111.84
2022-08-27T03:42:24.948Z,101121.88
2022-08-27T03:44:52.025Z,101120.16
2022-08-27T03:47:18.812Z,101119.25
2022-08-27T03:49:45.510Z,101119.88
2022-08-27T03:52:12.133Z,101117.31
2022-08-27T03:54:38.721Z,101123.97
2022-08-27T03:57:06.026Z,101117.69
2022-08-27T03:59:33.320Z,101118.69
2022-08-27T04:02:00.591Z,101119.59
2022-08-27T04:04:27.149Z,101125.28
2022-08-27T04:06:53.805Z,101121.53
2022-08-27T04:09:22.693Z,101123.59
2022-08-27T04:11:49.368Z,101121.63
2022-08-27T04:14:19.921Z,101120.09
2022-08-27T04:16:56.011Z,101120.31
2022-08-27T04:19:27.269Z,101117.13
2022-08-27T04:21:54.432Z,101109.41
2022-08-27T04:24:20.888Z,101115.22
2022-08-27T04:26:47.839Z,101118.25
2022-08-27T04:29:14.395Z,101118.31
2022-08-27T04:31:40.944Z,101126.81
2022-08-27T04:34:07.804Z,101120.59
2022-08-27T04:36:34.337Z,101130.22
2022-08-27T04:39:01.268Z,101126.16
2022-08-27T04:41:27.921Z,101125.03
2022-08-27T04:44:02.084Z,101130.53
2022-08-27T04:46:30.558Z,101129.50
2022-08-27T04:48:58.901Z,101134.38
2022-08-27T04:51:26.098Z,101128.72
2022-08-27T04:53:52.946Z,101134.28
2022-08-27T04:56:23.716Z,101128.69
2022-08-27T04:58:51.623Z,101135.75
2022-08-27T05:01:20.238Z,101137.81
2022-08-27T05:03:47.255Z,101128.34
2022-08-27T05:06:13.795Z,101135.28
2022-08-27T05:08:40.957Z,101132.59
2022-08-27T05:11:09.009Z,101133.47
2022-08-27T05:13:35.682Z,101134.25
2022-08-27T05:16:05.060Z,101134.66
2022-08-27T05:18:35.189Z,101140.22
2022-08-27T05:21:04.839Z,101135.63
2022-08-27T05:23:33.841Z,101147.78
2022-08-27T05:26:03.232Z,101148.44
2022-08-27T05:28:29.809Z,101144.97
2022-08-27T05:31:04.560Z,101156.38
2022-08-27T05:33:31.137Z,101158.63
2022-08-27T05:35:59.053Z,101151.94
2022-08-27T05:38:27.389Z,101151.22
2022-08-27T05:41:33.702Z,101153.22
2022-08-27T05:44:13.803Z,101148.47
2022-08-27T05:46:50.242Z,101144.78
2022-08-27T05:49:16.724Z,101148.91
2022-08-27T05:51:43.266Z,101153.63
2022-08-27T05:54:14.889Z,101155.53
2022-08-27T05:56:42.489Z,101148.66
2022-08-27T05:59:27.495Z,101149.94
2022-08-27T06:01:55.201Z,101154.66
2022-08-27T06:04:23.342Z,101162.63
2022-08-27T06:06:51.056Z,101159.75
2022-08-27T06:09:23.710Z,101160.06
2022-08-27T06:11:50.240Z,101165.38
2022-08-27T06:14:16.916Z,101163.59
2022-08-27T06:16:44.016Z,101162.84
2022-08-27T06:19:13.856Z,101163.91
2022-08-27T06:21:41.787Z,101168.34
2022-08-27T06:24:09.608Z,101170.88
2022-08-27T06:26:36.412Z,101167.91
2022-08-27T06:29:04.810Z,101166.22
2022-08-27T06:31:31.836Z,101162.47
2022-08-27T06:34:02.940Z,101172.66
2022-08-27T06:36:37.113Z,101166.78
2022-08-27T06:39:04.034Z,101168.00
2022-08-27T06:41:30.568Z,101173.16
2022-08-27T06:43:58.355Z,101163.91
2022-08-27T06:46:27.613Z,101171.13
2022-08-27T06:48:55.434Z,101170.53
2022-08-27T06:51:26.230Z,101176.59
2022-08-27T06:53:55.037Z,101174.19
2022-08-27T06:56:22.389Z,101169.47
2022-08-27T06:58:52.910Z,101175.53
2022-08-27T07:01:22.472Z,101172.53
2022-08-27T07:03:49.313Z,101177.13
2022-08-27T07:06:16.840Z,101178.88
2022-08-27T07:08:43.861Z,101168.00
2022-08-27T07:11:20.164Z,101172.16
2022-08-27T07:13:47.745Z,101175.28
2022-08-27T07:16:17.553Z,101173.91
2022-08-27T07:18:44.183Z,101167.75
2022-08-27T07:21:12.090Z,101167.75
2022-08-27T07:23:39.854Z,101177.09
2022-08-27T07:26:09.919Z,101171.19
2022-08-27T07:28:38.127Z,101187.91
2022-08-27T07:31:09.913Z,101181.56
2022-08-27T07:33:40.312Z,101187.41
2022-08-27T07:36:12.995Z,101192.25
2022-08-27T07:38:39.621Z,101191.69
2022-08-27T07:41:11.402Z,101196.78
2022-08-27T07:43:57.069Z,101198.47
2022-08-27T07:46:24.639Z,101196.78
2022-08-27T07:48:51.940Z,101208.81
2022-08-27T07:51:21.618Z,101206.03
2022-08-27T07:53:48.690Z,101198.88
2022-08-27T07:56:16.069Z,101210.13
2022-08-27T07:58:43.185Z,101208.03
2022-08-27T08:01:10.705Z,101208.81
2022-08-27T08:03:37.669Z,101218.50
2022-08-27T08:06:06.266Z,101212.28
2022-08-27T08:08:35.049Z,101211.47
2022-08-27T08:11:03.728Z,101215.03
2022-08-27T08:13:31.230Z,101216.94
2022-08-27T08:15:58.761Z,101225.59
2022-08-27T08:18:25.749Z,101228.19
2022-08-27T08:20:58.474Z,101222.22
2022-08-27T08:23:25.586Z,101235.44
2022-08-27T08:25:52.074Z,101228.97
2022-08-27T08:28:18.571Z,101241.41
2022-08-27T08:30:46.661Z,101236.91
2022-08-27T08:33:14.119Z,101232.59
2022-08-27T08:35:41.431Z,101238.47
2022-08-27T08:38:08.650Z,101238.38
2022-08-27T08:40:41.502Z,101237.22
2022-08-27T08:43:18.921Z,101239.09
2022-08-27T08:45:45.804Z,101244.31
2022-08-27T08:48:16.346Z,101243.19
2022-08-27T08:51:01.576Z,101256.66
2022-08-27T08:53:46.141Z,101249.97
2022-08-27T08:56:37.794Z,101251.84
2022-08-27T08:59:22.640Z,101253.69
2022-08-27T09:01:49.726Z,101254.50
2022-08-27T09:04:16.448Z,101254.31
2022-08-27T09:07:01.838Z,101248.81
2022-08-27T09:09:47.398Z,101241.53
2022-08-27T09:12:19.285Z,101245.25
2022-08-27T09:14:55.943Z,101259.16
2022-08-27T09:17:23.642Z,101256.66
2022-08-27T09:19:52.346Z,101262.47
2022-08-27T09:22:41.809Z,101250.94
2022-08-27T09:25:21.806Z,101246.69
2022-08-27T09:27:54.306Z,101255.81
2022-08-27T09:30:30.004Z,101255.72
2022-08-27T09:33:00.415Z,101255.81
2022-08-27T09:35:28.803Z,101244.66
2022-08-27T09:37:56.334Z,101241.81
2022-08-27T09:40:28.173Z,101255.63
2022-08-27T09:42:57.386Z,101248.59
2022-08-27T09:45:26.805Z,101244.72
2022-08-27T09:48:13.969Z,101240.03
2022-08-27T09:50:54.297Z,101244.72
2022-08-27T09:53:48.064Z,101239.91
2022-08-27T09:56:36.301Z,101249.09
2022-08-27T09:59:06.506Z,101251.53
2022-08-27T10:01:35.646Z,101247.91
2022-08-27T10:04:17.430Z,101251.53
2022-08-27T10:06:51.296Z,101247.34
2022-08-27T10:09:26.534Z,101247.72
2022-08-27T10:12:00.585Z,101245.34
2022-08-27T10:14:52.487Z,101243.44
2022-08-27T10:17:28.098Z,101239.81
2022-08-27T10:20:49.059Z,101244.88
2022-08-27T10:23:37.506Z,101244.44
2022-08-27T10:26:23.790Z,101247.22
2022-08-27T10:29:18.158Z,101250.84
2022-08-27T10:32:11.365Z,101254.34
2022-08-27T10:35:03.713Z,101251.94
2022-08-27T10:37:44.214Z,101243.84
2022-08-27T10:40:35.233Z,101244.91
2022-08-27T10:43:04.774Z,101248.19
2022-08-27T10:45:43.461Z,101245.75
2022-08-27T10:48:13.526Z,101244.63
2022-08-27T10:50:52.211Z,101249.75
2022-08-27T10:53:24.742Z,101242.38
2022-08-27T10:55:56.353Z,101242.28
2022-08-27T10:58:32.530Z,101244.28
2022-08-27T11:01:36.098Z,101245.00
2022-08-27T11:04:14.263Z,101239.16
2022-08-27T11:06:49.281Z,101239.72
2022-08-27T11:09:26.953Z,101224.53
2022-08-27T11:12:13.992Z,101234.19
2022-08-27T11:15:27.392Z,101229.81
2022-08-27T11:18:20.564Z,101232.28
2022-08-27T11:21:01.394Z,101234.09
2022-08-27T11:23:45.354Z,101230.50
2022-08-27T11:26:12.586Z,101223.69
2022-08-27T11:28:43.356Z,101236.91
2022-08-27T11:31:19.756Z,101231.69
2022-08-27T11:34:10.905Z,101237.25
2022-08-27T11:36:37.357Z,101230.78
2022-08-27T11:39:21.257Z,101241.66
2022-08-27T11:42:03.100Z,101233.53
2022-08-27T11:44:29.874Z,101221.84
2022-08-27T11:46:58.848Z,101223.63
2022-08-27T11:49:36.515Z,101212.78
2022-08-27T11:52:09.917Z,101212.81
2022-08-27T11:54:51.690Z,101223.66
2022-08-27T11:57:34.868Z,101218.16
2022-08-27T12:00:16.698Z,101211.47
2022-08-27T12:02:45.249Z,101214.44
2022-08-27T12:05:26.616Z,101216.66
2022-08-27T12:07:53.745Z,101215.78
2022-08-27T12:10:38.533Z,101211.72
2022-08-27T12:13:18.590Z,101206.53
2022-08-27T12:16:01.128Z,101206.66
2022-08-27T12:18:40.418Z,101205.53
2022-08-27T12:21:17.373Z,101218.28
2022-08-27T12:24:05.546Z,101207.75
2022-08-27T12:26:34.822Z,101211.28
2022-08-27T12:29:20.226Z,101210.56
2022-08-27T12:31:57.303Z,101208.31
2022-08-27T12:34:25.533Z,101203.88
2022-08-27T12:36:53.774Z,101205.41
2022-08-27T12:39:27.937Z,101199.06
2022-08-27T12:41:55.775Z,101200.28
2022-08-27T12:44:29.019Z,101208.25
2022-08-27T12:47:07.964Z,101204.66
2022-08-27T12:49:45.269Z,101201.31
2022-08-27T12:52:29.879Z,101200.44
2022-08-27T12:55:11.813Z,101212.03
2022-08-27T12:57:47.519Z,101211.22
2022-08-27T13:00:19.702Z,101207.66
2022-08-27T13:03:10.145Z,101201.72
2022-08-27T13:05:49.109Z,101195.16
2022-08-27T13:08:36.193Z,101199.16
2022-08-27T13:11:08.918Z,101194.91
2022-08-27T13:13:39.871Z,101193.50
2022-08-27T13:16:06.547Z,101193.63
2022-08-27T13:18:33.208Z,101197.56
2022-08-27T13:21:06.618Z,101191.13
2022-08-27T13:23:33.626Z,101184.53
2022-08-27T13:26:05.173Z,101187.56
2022-08-27T13:28:32.051Z,101190.75
2022-08-27T13:30:59.058Z,101186.44
2022-08-27T13:33:28.708Z,101185.38
2022-08-27T13:35:57.610Z,101185.34
2022-08-27T13:38:26.146Z,101186.06
2022-08-27T13:41:02.192Z,101186.47
2022-08-27T13:43:40.560Z,101183.81
2022-08-27T13:46:10.684Z,101166.91
2022-08-27T13:48:41.178Z,101178.41
2022-08-27T13:51:09.181Z,101174.50
2022-08-27T13:53:55.379Z,101162.31
2022-08-27T13:56:27.678Z,101170.59
2022-08-27T13:58:54.595Z,101170.69
2022-08-27T14:01:28.633Z,101167.78
2022-08-27T14:04:21.177Z,101174.28
2022-08-27T14:06:47.945Z,101173.31
2022-08-27T14:09:25.370Z,101174.03
2022-08-27T14:12:00.478Z,101167.31
2022-08-27T14:14:27.223Z,101168.41
2022-08-27T14:17:01.590Z,101160.88
2022-08-27T14:19:36.082Z,101167.66
2022-08-27T14:22:03.838Z,101169.78
2022-08-27T14:24:30.348Z,101156.56
2022-08-27T14:27:06.189Z,101165.81
2022-08-27T14:29:32.677Z,101157.53
2022-08-27T14:31:59.173Z,101163.38
2022-08-27T14:34:25.664Z,101156.75
2022-08-27T14:36:54.839Z,101164.16
2022-08-27T14:39:26.088Z,101167.13
2022-08-27T14:41:53.311Z,101177.69
2022-08-27T14:44:21.202Z,101173.25
2022-08-27T14:46:47.859Z,101164.88
2022-08-27T14:49:25.042Z,101170.47
2022-08-27T14:51:51.622Z,101171.66
2022-08-27T14:54:18.123Z,101175.56
2022-08-27T14:56:44.667Z,101169.41
2022-08-27T14:59:11.151Z,101161.00
2022-08-27T15:01:38.260Z,101166.44
2022-08-27T15:04:05.255Z,101169.78
2022-08-27T15:06:31.775Z,101172.75
2022-08-27T15:09:00.285Z,101173.06
2022-08-27T15:11:32.112Z,101171.22
2022-08-27T15:14:00.134Z,101169.19
2022-08-27T15:16:35.607Z,101182.19
2022-08-27T15:19:02.886Z,101178.81
2022-08-27T15:21:30.678Z,101184.25
2022-08-27T15:24:13.297Z,101188.81
2022-08-27T15:26:39.863Z,101193.63
2022-08-27T15:29:06.914Z,101187.38
2022-08-27T15:31:34.117Z,101190.91
2022-08-27T15:34:00.731Z,101191.78
2022-08-27T15:36:27.233Z,101192.75
2022-08-27T15:38:54.924Z,101196.97
2022-08-27T15:41:22.778Z,101192.75
2022-08-27T15:43:50.754Z,101198.84
2022-08-27T15:46:17.455Z,101200.81
2022-08-27T15:48:44.023Z,101201.50
2022-08-27T15:51:13.289Z,101202.88
2022-08-27T15:53:41.481Z,101198.13
2022-08-27T15:56:08.688Z,101202.66
2022-08-27T15:58:36.505Z,101194.09
2022-08-27T16:01:10.207Z,101203.22
2022-08-27T16:03:37.692Z,101197.22
2022-08-27T16:06:06.767Z,101196.72
2022-08-27T16:08:36.628Z,101205.22
2022-08-27T16:11:04.480Z,101204.88
2022-08-27T16:13:31.260Z,101205.75
2022-08-27T16:15:58.343Z,101201.00
2022-08-27T16:18:28.390Z,101196.94
2022-08-27T16:20:56.519Z,101208.34
2022-08-27T16:23:25.352Z,101194.50
2022-08-27T16:25:53.075Z,101204.38
2022-08-27T16:28:19.670Z,101204.53
2022-08-27T16:30:46.266Z,101203.97
2022-08-27T16:33:14.370Z,101203.19
2022-08-27T16:35:41.035Z,101200.28
2022-08-27T16:38:07.637Z,101199.81
2022-08-27T16:40:36.751Z,101202.81
2022-08-27T16:43:03.295Z,101200.69
2022-08-27T16:45:29.831Z,101202.00
2022-08-27T16:48:14.935Z,101203.09
2022-08-27T16:50:41.697Z,101210.19
2022-08-27T16:53:14.624Z,101206.84
2022-08-27T16:55:42.661Z,101214.06
2022-08-27T16:58:15.724Z,101212.88
2022-08-27T17:00:44.148Z,101207.16
2022-08-27T17:03:10.825Z,101210.72
2022-08-27T17:05:37.593Z,101213.47
2022-08-27T17:08:05.740Z,101220.84
2022-08-27T17:10:40.270Z,101222.13
2022-08-27T17:13:08.382Z,101224.47
2022-08-27T17:15:35.397Z,101225.50
2022-08-27T17:18:02.885Z,101231.59
2022-08-27T17:20:29.963Z,101223.81
2022-08-27T17:22:57.946Z,101232.56
2022-08-27T17:25:30.120Z,101226.00
2022-08-27T17:28:00.112Z,101230.56
2022-08-27T17:30:27.089Z,101229.63
2022-08-27T17:32:53.621Z,101235.63
2022-08-27T17:35:20.120Z,101237.97
2022-08-27T17:37:46.629Z,101237.16
2022-08-27T17:40:13.673Z,101238.88
2022-08-27T17:42:40.506Z,101244.09
2022-08-27T17:45:07.556Z,101250.16
2022-08-27T17:47:34.061Z,101249.44
2022-08-27T17:50:00.550Z,101254.97
2022-08-27T17:52:27.047Z,101252.50
2022-08-27T17:54:56.319Z,101261.38
2022-08-27T17:57:29.260Z,101264.69
2022-08-27T17:59:58.662Z,101267.84
2022-08-27T18:02:31.986Z,101268.91
2022-08-27T18:04:58.549Z,101274.63
2022-08-27T18:07:25.196Z,101272.78
2022-08-27T18:09:52.252Z,101277.81
2022-08-27T18:12:23.040Z,101283.97
2022-08-27T18:14:55.105Z,101286.97
2022-08-27T18:17:21.681Z,101288.81
2022-08-27T18:19:50.723Z,101284.66
2022-08-27T18:22:18.002Z,101283.50
2022-08-27T18:24:44.523Z,101293.38
2022-08-27T18:27:11.047Z,101290.19
2022-08-27T18:29:37.628Z,101290.03
2022-08-27T18:32:05.118Z,101300.03
2022-08-27T18:34:32.502Z,101301.00
2022-08-27T18:36:59.038Z,101296.09
2022-08-27T18:39:25.660Z,101306.03
2022-08-27T18:41:55.906Z,101304.34
2022-08-27T18:44:22.373Z,101309.03
2022-08-27T18:46:48.896Z,101308.94
2022-08-27T18:49:15.550Z,101310.69
2022-08-27T18:51:43.147Z,101314.47
2022-08-27T18:54:10.255Z,101310.81
2022-08-27T18:56:36.795Z,101307.56
2022-08-27T18:59:04.296Z,101316.97
2022-08-27T19:01:31.927Z,101315.25
2022-08-27T19:03:58.634Z,101308.47
2022-08-27T19:06:25.662Z,101314.63
2022-08-27T19:08:52.160Z,101318.22
2022-08-27T19:11:18.973Z,101317.41
2022-08-27T19:13:45.548Z,101314.94
2022-08-27T19:16:28.767Z,101322.16
2022-08-27T19:18:55.326Z,101318.78
2022-08-27T19:21:21.830Z,101330.94
2022-08-27T19:23:51.070Z,101324.91
2022-08-27T19:26:19.892Z,101331.72
2022-08-27T19:28:46.742Z,101326.59
2022-08-27T19:31:14.367Z,101337.81
2022-08-27T19:33:41.900Z,101339.88
2022-08-27T19:36:13.728Z,101338.81
2022-08-27T19:38:42.516Z,101338.25
2022-08-27T19:41:09.022Z,101344.38
2022-08-27T19:43:35.666Z,101343.44
2022-08-27T19:46:03.351Z,101344.63
2022-08-27T19:48:31.210Z,101347.22
2022-08-27T19:50:58.021Z,101347.22
2022-08-27T19:53:24.593Z,101349.75
2022-08-27T19:55:51.731Z,101349.97
2022-08-27T19:58:19.433Z,101342.03
2022-08-27T20:00:46.073Z,101339.50
2022-08-27T20:03:12.836Z,101338.69
2022-08-27T20:05:39.547Z,101340.44
2022-08-27T20:08:06.134Z,101336.09
2022-08-27T20:10:36.570Z,101341.44
2022-08-27T20:13:04.802Z,101344.13
2022-08-27T20:15:31.502Z,101341.47
2022-08-27T20:17:59.658Z,101343.13
2022-08-27T20:20:28.100Z,101349.31
2022-08-27T20:22:55.948Z,101345.72
2022-08-27T20:25:23.373Z,101344.09
2022-08-27T20:27:50.620Z,101338.72
2022-08-27T20:30:18.463Z,101344.94
2022-08-27T20:32:46.762Z,101346.72
2022-08-27T20:35:13.382Z,101352.91
2022-08-27T20:37:42.376Z,101344.91
2022-08-27T20:40:13.074Z,101350.16
2022-08-27T20:42:39.674Z,101347.59
2022-08-27T20:45:11.776Z,101352.09
2022-08-27T20:47:40.055Z,101351.16
2022-08-27T20:50:07.082Z,101358.34
2022-08-27T20:52:35.635Z,101351.13
2022-08-27T20:55:03.137Z,101356.47
2022-08-27T20:57:29.625Z,101353.91
2022-08-27T21:00:14.744Z,101352.19
2022-08-27T21:02:41.250Z,101357.47
2022-08-27T21:05:13.321Z,101357.44
2022-08-27T21:07:40.222Z,101348.59
2022-08-27T21:10:07.265Z,101360.97
2022-08-27T21:12:34.414Z,101354.84
2022-08-27T21:15:01.997Z,101352.16
2022-08-27T21:17:28.951Z,101365.31
2022-08-27T21:19:56.289Z,101355.69
2022-08-27T21:22:23.802Z,101353.97
2022-08-27T21:24:50.516Z,101358.34
2022-08-27T21:27:18.563Z,101356.56
2022-08-27T21:29:45.423Z,101356.63
2022-08-27T21:32:13.179Z,101358.34
2022-08-27T21:34:39.921Z,101357.50
2022-08-27T21:37:06.388Z,101357.47
2022-08-27T21:39:34.358Z,101363.66
2022-08-27T21:42:02.216Z,101361.88
2022-08-27T21:44:30.336Z,101362.75
2022-08-27T21:46:57.574Z,101359.25
2022-08-27T21:49:24.126Z,101360.16
2022-08-27T21:51:50.740Z,101364.53
2022-08-27T21:54:17.565Z,101361.91
2022-08-27T21:56:44.631Z,101372.44
2022-08-27T21:59:11.237Z,101356.63
2022-08-27T22:01:37.815Z,101364.53
2022-08-27T22:04:04.316Z,101363.63
2022-08-27T22:06:30.810Z,101365.38
2022-08-27T22:08:57.342Z,101361.91
2022-08-27T22:11:24.607Z,101374.16
2022-08-27T22:13:52.205Z,101361.91
2022-08-27T22:16:19.365Z,101372.41
2022-08-27T22:18:45.978Z,101367.19
2022-08-27T22:21:12.484Z,101365.41
2022-08-27T22:23:39.021Z,101371.53
2022-08-27T22:26:10.622Z,101367.16
2022-08-27T22:28:37.134Z,101364.53
2022-08-27T22:31:03.639Z,101372.41
2022-08-27T22:33:30.217Z,101374.13
2022-08-27T22:35:56.722Z,101370.63
2022-08-27T22:38:23.254Z,101368.00
2022-08-27T22:40:51.430Z,101365.41
2022-08-27T22:43:18.300Z,101367.91
2022-08-27T22:45:44.778Z,101370.56
2022-08-27T22:48:11.351Z,101370.47
2022-08-27T22:50:38.182Z,101362.66
2022-08-27T22:53:04.701Z,101371.38
2022-08-27T22:55:31.277Z,101365.34
2022-08-27T22:57:57.889Z,101366.19
2022-08-27T23:00:30.389Z,101369.59
2022-08-27T23:02:57.511Z,101366.94
2022-08-27T23:05:26.231Z,101369.69
2022-08-27T23:07:54.744Z,101371.31
2022-08-27T23:10:24.095Z,101368.75
2022-08-27T23:12:53.572Z,101369.63
2022-08-27T23:15:22.883Z,101358.25
2022-08-27T23:17:49.527Z,101359.13
2022-08-27T23:20:16.733Z,101371.34
2022-08-27T23:22:43.851Z,101369.56
2022-08-27T23:25:30.606Z,101367.06
2022-08-27T23:27:59.605Z,101370.50
2022-08-27T23:30:26.952Z,101366.94
2022-08-27T23:32:54.866Z,101364.34
2022-08-27T23:35:22.860Z,101366.94
2022-08-27T23:37:50.504Z,101364.41
2022-08-27T23:40:17.737Z,101365.22
2022-08-27T23:42:45.212Z,101363.50
2022-08-27T23:45:15.443Z,101355.63
2022-08-27T23:47:41.998Z,101359.97
2022-08-27T23:50:09.570Z,101360.88
2022-08-27T23:52:36.756Z,101366.09
2022-08-27T23:55:04.223Z,101365.19
2022-08-27T23:57:30.759Z,101352.09
2022-08-27T23:59:57.684Z,101365.25
